首页
METAR-TAF:

METAR-TAF

机场 :

Harriman-and-West Airport

北亚当斯, 马萨诸塞州, 美国

纬度: 42-41-50N, 经度: 073-10-13W, 海拔: 199米

当前天气观测

该预报发布于46分钟前的07:52 UTC
风速11节,风向西,有时为19节阵风
温度 -6°C
湿度 62%
气压 1033 hPa
能見度: 16.1公里
天空无云

METAR: KAQW 120752Z AUTO 26011G19KT 10SM CLR M06/M12 A3049 RMK AO2 SLP335 T10561122 TSNO

时间: 03:38 (08:38 UTC)


TAF: 丢失

超过4000个机场的气象观测和天气预报(METAR&TAF报告)。

可查询的气象台以黄色和红色小点在地图上表示。

将鼠标移到小点上方,可查看气象台名称。

然后点击查看天气观测和预报。

如需切换地图:点击带黑十字的绿色按钮放大地图;点击带横线的绿色按钮缩小地图;或者点击绿色箭头查看邻近地区的地图。


METAR-TAF: